createdAt,value
2023-04-14T00:01:00.374Z,13.55
2023-04-14T00:03:27.370Z,14.73
2023-04-14T00:05:54.452Z,11.45
2023-04-14T00:08:21.214Z,9.95
2023-04-14T00:10:47.980Z,13.18
2023-04-14T00:13:14.895Z,12.65
2023-04-14T00:15:42.509Z,10.93
2023-04-14T00:18:09.321Z,13.55
2023-04-14T00:20:36.177Z,11.30
2023-04-14T00:23:03.046Z,11.40
2023-04-14T00:25:29.776Z,11.13
2023-04-14T00:27:56.611Z,12.02
2023-04-14T00:30:23.353Z,11.90
2023-04-14T00:32:50.129Z,10.40
2023-04-14T00:35:16.954Z,10.45
2023-04-14T00:37:43.779Z,11.40
2023-04-14T00:40:13.322Z,11.45
2023-04-14T00:42:44.464Z,10.82
2023-04-14T00:45:11.981Z,10.15
2023-04-14T00:47:39.544Z,9.85
2023-04-14T00:50:06.975Z,10.70
2023-04-14T00:52:33.706Z,9.90
2023-04-14T00:55:00.981Z,10.60
2023-04-14T00:57:27.884Z,9.63
2023-04-14T00:59:54.782Z,10.15
2023-04-14T01:02:22.311Z,10.52
2023-04-14T01:04:54.186Z,11.82
2023-04-14T01:07:21.791Z,10.88
2023-04-14T01:09:48.545Z,10.63
2023-04-14T01:12:28.444Z,11.30
2023-04-14T01:15:20.748Z,11.65
2023-04-14T01:18:11.420Z,9.35
2023-04-14T01:20:39.647Z,11.27
2023-04-14T01:23:13.701Z,11.80
2023-04-14T01:25:49.519Z,10.55
2023-04-14T01:28:22.554Z,10.85
2023-04-14T01:31:26.602Z,9.82
2023-04-14T01:34:20.932Z,9.18
2023-04-14T01:37:15.214Z,11.15
2023-04-14T01:39:43.091Z,11.23
2023-04-14T01:42:11.923Z,10.73
2023-04-14T01:44:39.515Z,10.27
2023-04-14T01:47:08.527Z,10.10
2023-04-14T01:49:36.649Z,10.30
2023-04-14T01:52:04.223Z,11.02
2023-04-14T01:54:32.166Z,10.65
2023-04-14T01:56:58.902Z,9.80
2023-04-14T01:59:25.816Z,10.20
2023-04-14T02:01:52.786Z,9.60
2023-04-14T02:04:20.747Z,10.55
2023-04-14T02:06:47.609Z,10.32
2023-04-14T02:09:14.696Z,10.15
2023-04-14T02:11:42.470Z,9.90
2023-04-14T02:14:09.517Z,9.48
2023-04-14T02:16:36.395Z,10.57
2023-04-14T02:19:04.196Z,10.80
2023-04-14T02:21:31.283Z,9.38
2023-04-14T02:23:58.075Z,10.88
2023-04-14T02:26:26.715Z,10.73
2023-04-14T02:28:58.200Z,10.85
2023-04-14T02:31:26.047Z,10.63
2023-04-14T02:33:55.050Z,10.18
2023-04-14T02:36:24.509Z,10.45
2023-04-14T02:39:18.294Z,10.80
2023-04-14T02:41:45.850Z,10.75
2023-04-14T02:44:28.797Z,10.85
2023-04-14T02:47:07.012Z,9.73
2023-04-14T02:49:36.469Z,9.20
2023-04-14T02:52:06.740Z,9.60
2023-04-14T02:54:38.035Z,9.73
2023-04-14T02:57:04.776Z,9.38
2023-04-14T02:59:32.416Z,9.75
2023-04-14T03:02:06.498Z,9.43
2023-04-14T03:04:34.681Z,11.00
2023-04-14T03:07:01.762Z,9.10
2023-04-14T03:09:29.004Z,9.52
2023-04-14T03:11:55.773Z,9.35
2023-04-14T03:14:23.232Z,9.93
2023-04-14T03:16:53.528Z,10.00
2023-04-14T03:19:23.789Z,10.05
2023-04-14T03:21:51.238Z,10.43
2023-04-14T03:24:30.887Z,9.95
2023-04-14T03:29:34.501Z,9.63
2023-04-14T03:32:02.246Z,9.30
2023-04-14T03:34:29.882Z,9.55
2023-04-14T03:36:56.725Z,9.23
2023-04-14T03:39:28.484Z,9.45
2023-04-14T03:41:56.182Z,10.48
2023-04-14T03:44:23.171Z,11.02
2023-04-14T03:46:50.097Z,10.23
2023-04-14T03:49:17.494Z,9.60
2023-04-14T03:51:44.544Z,11.55
2023-04-14T03:54:11.874Z,9.75
2023-04-14T03:56:41.312Z,9.85
2023-04-14T03:59:11.602Z,9.40
2023-04-14T04:01:39.117Z,13.60
2023-04-14T04:04:06.318Z,9.50
2023-04-14T04:06:33.836Z,9.48
2023-04-14T04:09:01.398Z,9.68
2023-04-14T04:11:29.201Z,10.98
2023-04-14T04:13:56.162Z,9.50
2023-04-14T04:16:23.119Z,11.95
2023-04-14T04:18:49.996Z,9.77
2023-04-14T04:21:18.198Z,10.45
2023-04-14T04:23:52.796Z,9.80
2023-04-14T04:26:19.669Z,13.43
2023-04-14T04:28:46.920Z,9.13
2023-04-14T04:31:13.761Z,10.93
2023-04-14T04:33:40.539Z,9.38
2023-04-14T04:36:07.579Z,10.75
2023-04-14T04:38:34.410Z,9.63
2023-04-14T04:41:01.248Z,8.90
2023-04-14T04:43:28.178Z,9.35
2023-04-14T04:46:25.898Z,11.20
2023-04-14T04:48:53.215Z,9.93
2023-04-14T04:51:19.965Z,9.48
2023-04-14T04:53:46.854Z,9.50
2023-04-14T04:56:13.784Z,9.65
2023-04-14T04:58:40.728Z,10.15
2023-04-14T05:01:11.239Z,10.57
2023-04-14T05:03:38.379Z,11.05
2023-04-14T05:06:06.923Z,10.63
2023-04-14T05:08:33.706Z,10.70
2023-04-14T05:11:01.493Z,10.40
2023-04-14T05:13:28.241Z,10.88
2023-04-14T05:16:08.673Z,11.82
2023-04-14T05:18:35.721Z,11.43
2023-04-14T05:21:09.715Z,9.55
2023-04-14T05:23:37.594Z,11.23
2023-04-14T05:26:26.974Z,10.52
2023-04-14T05:28:51.921Z,11.35
2023-04-14T05:31:18.839Z,12.32
2023-04-14T05:33:45.837Z,10.48
2023-04-14T05:36:12.990Z,10.68
2023-04-14T05:38:43.140Z,12.48
2023-04-14T05:41:10.325Z,10.63
2023-04-14T05:43:37.471Z,10.32
2023-04-14T05:46:04.935Z,11.23
2023-04-14T05:48:33.574Z,10.20
2023-04-14T05:51:00.764Z,19.13
2023-04-14T05:53:28.001Z,10.35
2023-04-14T05:55:54.830Z,11.23
2023-04-14T05:58:21.785Z,10.98
2023-04-14T06:00:48.607Z,10.43
2023-04-14T06:03:16.909Z,10.48
2023-04-14T06:05:44.335Z,11.00
2023-04-14T06:08:11.306Z,10.80
2023-04-14T06:10:38.099Z,12.15
2023-04-14T06:13:04.935Z,10.80
2023-04-14T06:15:31.935Z,12.40
2023-04-14T06:17:58.964Z,11.82
2023-04-14T06:20:25.982Z,13.45
2023-04-14T06:22:52.786Z,11.23
2023-04-14T06:25:19.908Z,11.77
2023-04-14T06:27:46.628Z,15.63
2023-04-14T06:30:15.493Z,14.60
2023-04-14T06:32:42.531Z,23.13
2023-04-14T06:35:16.468Z,17.80
2023-04-14T06:40:17.524Z,19.00
2023-04-14T06:42:44.318Z,21.48
2023-04-14T06:45:11.613Z,21.05
2023-04-14T06:47:38.570Z,28.15
2023-04-14T06:50:05.816Z,21.65
2023-04-14T06:52:32.805Z,21.10
2023-04-14T06:54:59.738Z,21.40
2023-04-14T06:57:26.658Z,20.10
2023-04-14T06:59:53.581Z,21.13
2023-04-14T07:02:20.520Z,20.73
2023-04-14T07:04:47.427Z,19.08
2023-04-14T07:07:14.952Z,20.38
2023-04-14T07:09:44.623Z,19.98
2023-04-14T07:12:14.863Z,19.33
2023-04-14T07:14:41.795Z,22.67
2023-04-14T07:17:09.102Z,19.77
2023-04-14T07:19:35.855Z,18.45
2023-04-14T07:22:03.873Z,20.05
2023-04-14T07:24:30.598Z,19.17
2023-04-14T07:26:57.333Z,19.40
2023-04-14T07:29:24.283Z,19.38
2023-04-14T07:31:51.110Z,28.55
2023-04-14T07:34:18.526Z,24.15
2023-04-14T07:36:45.949Z,29.20
2023-04-14T07:39:12.820Z,31.35
2023-04-14T07:41:41.438Z,29.40
2023-04-14T07:44:08.296Z,28.60
2023-04-14T07:46:35.093Z,34.00
2023-04-14T07:49:02.466Z,24.15
2023-04-14T07:51:29.331Z,24.95
2023-04-14T07:53:56.257Z,28.20
2023-04-14T07:56:23.188Z,27.30
2023-04-14T07:58:50.143Z,26.70
2023-04-14T08:01:17.212Z,25.38
2023-04-14T08:03:45.551Z,30.92
2023-04-14T08:06:12.992Z,26.05
2023-04-14T08:08:40.321Z,26.80
2023-04-14T08:11:07.188Z,30.35
2023-04-14T08:13:34.171Z,26.25
2023-04-14T08:16:01.074Z,29.60
2023-04-14T08:18:28.487Z,32.47
2023-04-14T08:20:55.637Z,33.17
2023-04-14T08:23:23.022Z,31.10
2023-04-14T08:25:49.898Z,44.05
2023-04-14T08:28:17.437Z,39.75
2023-04-14T08:30:44.245Z,33.67
2023-04-14T08:33:11.297Z,30.88
2023-04-14T08:35:42.442Z,31.10
2023-04-14T08:38:11.997Z,32.75
2023-04-14T08:40:40.321Z,31.15
2023-04-14T08:43:07.399Z,29.95
2023-04-14T08:45:34.627Z,31.08
2023-04-14T08:48:02.848Z,30.00
2023-04-14T08:50:37.959Z,30.75
2023-04-14T08:53:06.638Z,33.75
2023-04-14T08:55:33.811Z,30.13
2023-04-14T08:58:01.515Z,29.52
2023-04-14T09:00:28.387Z,31.17
2023-04-14T09:02:55.625Z,29.23
2023-04-14T09:05:22.575Z,31.17
2023-04-14T09:07:49.934Z,29.48
2023-04-14T09:10:16.813Z,30.33
2023-04-14T09:12:43.988Z,32.63
2023-04-14T09:15:12.124Z,31.75
2023-04-14T09:17:38.882Z,32.10
2023-04-14T09:20:38.524Z,30.48
2023-04-14T09:22:53.421Z,30.23
2023-04-14T09:25:21.143Z,29.58
2023-04-14T09:27:49.399Z,32.25
2023-04-14T09:30:17.994Z,50.10
2023-04-14T09:32:47.958Z,31.98
2023-04-14T09:35:14.898Z,34.05
2023-04-14T09:37:45.393Z,34.08
2023-04-14T09:40:28.032Z,32.00
2023-04-14T09:42:56.510Z,33.88
2023-04-14T09:45:23.342Z,31.95
2023-04-14T09:48:06.350Z,32.88
2023-04-14T09:50:33.757Z,32.88
2023-04-14T09:53:00.493Z,30.48
2023-04-14T09:55:27.578Z,41.30
2023-04-14T09:57:54.373Z,46.70
2023-04-14T10:00:22.471Z,33.35
2023-04-14T10:02:56.037Z,30.70
2023-04-14T10:05:27.329Z,30.20
2023-04-14T10:07:54.464Z,30.23
2023-04-14T10:10:21.484Z,30.60
2023-04-14T10:12:48.287Z,31.77
2023-04-14T10:15:15.733Z,30.30
2023-04-14T10:17:42.994Z,29.05
2023-04-14T10:20:10.502Z,28.98
2023-04-14T10:22:39.082Z,27.42
2023-04-14T10:25:08.230Z,26.15
2023-04-14T10:27:35.170Z,25.48
2023-04-14T10:30:02.337Z,26.30
2023-04-14T10:32:32.008Z,24.48
2023-04-14T10:37:35.350Z,23.58
2023-04-14T10:42:52.282Z,22.73
2023-04-14T10:45:19.076Z,21.67
2023-04-14T10:47:45.926Z,20.83
2023-04-14T10:50:14.276Z,20.23
2023-04-14T10:52:58.927Z,23.40
2023-04-14T10:55:28.536Z,28.60
2023-04-14T10:58:06.440Z,24.13
2023-04-14T11:00:37.798Z,24.85
2023-04-14T11:03:08.015Z,23.92
2023-04-14T11:05:35.783Z,23.77
2023-04-14T11:08:15.822Z,24.92
2023-04-14T11:10:48.269Z,29.88
2023-04-14T11:13:17.567Z,24.00
2023-04-14T11:15:51.952Z,18.25
2023-04-14T11:18:21.642Z,20.98
2023-04-14T11:20:49.151Z,19.63
2023-04-14T11:23:19.344Z,22.27
2023-04-14T11:25:46.301Z,18.42
2023-04-14T11:28:13.246Z,20.42
2023-04-14T11:30:40.892Z,19.50
2023-04-14T11:33:07.929Z,20.27
2023-04-14T11:35:34.848Z,20.20
2023-04-14T11:38:01.968Z,19.92
2023-04-14T11:40:29.010Z,19.60
2023-04-14T11:42:59.270Z,26.65
2023-04-14T11:45:29.737Z,20.25
2023-04-14T11:48:04.463Z,18.20
2023-04-14T11:50:33.103Z,22.63
2023-04-14T11:53:00.461Z,22.98
2023-04-14T11:55:27.656Z,19.27
2023-04-14T11:57:58.395Z,18.63
2023-04-14T12:00:25.463Z,17.00
2023-04-14T12:02:52.581Z,24.17
2023-04-14T12:05:21.761Z,16.33
2023-04-14T12:07:49.556Z,17.05
2023-04-14T12:10:16.525Z,19.23
2023-04-14T12:12:43.603Z,15.13
2023-04-14T12:15:10.870Z,15.05
2023-04-14T12:17:38.693Z,13.80
2023-04-14T12:20:06.096Z,16.60
2023-04-14T12:22:32.862Z,14.45
2023-04-14T12:24:59.690Z,15.80
2023-04-14T12:27:27.744Z,14.57
2023-04-14T12:29:54.653Z,15.43
2023-04-14T12:32:22.827Z,14.25
2023-04-14T12:35:01.483Z,20.13
2023-04-14T12:37:28.448Z,14.77
2023-04-14T12:40:00.626Z,14.82
2023-04-14T12:42:28.260Z,16.23
2023-04-14T12:44:56.293Z,20.25
2023-04-14T12:47:32.523Z,15.02
2023-04-14T12:50:00.378Z,13.30
2023-04-14T12:52:40.269Z,12.98
2023-04-14T12:55:07.958Z,13.07
2023-04-14T12:57:35.202Z,13.13
2023-04-14T13:00:02.302Z,13.73
2023-04-14T13:02:30.289Z,14.02
2023-04-14T13:04:57.375Z,17.13
2023-04-14T13:07:24.238Z,14.43
2023-04-14T13:09:52.028Z,15.35
2023-04-14T13:12:18.878Z,11.77
2023-04-14T13:14:46.919Z,12.23
2023-04-14T13:17:13.739Z,14.32
2023-04-14T13:19:41.596Z,21.52
2023-04-14T13:22:08.550Z,16.67
2023-04-14T13:24:36.321Z,17.92
2023-04-14T13:27:03.250Z,20.35
2023-04-14T13:29:32.206Z,22.17
2023-04-14T13:31:59.193Z,20.85
2023-04-14T13:34:27.674Z,22.08
2023-04-14T13:36:55.194Z,20.42
2023-04-14T13:39:22.841Z,21.83
2023-04-14T13:41:49.791Z,23.35
2023-04-14T13:44:17.272Z,23.60
2023-04-14T13:46:45.721Z,24.88
2023-04-14T13:49:12.752Z,26.55
2023-04-14T13:51:40.005Z,36.70
2023-04-14T13:54:07.105Z,28.05
2023-04-14T13:56:33.902Z,28.52
2023-04-14T13:59:02.343Z,30.08
2023-04-14T14:01:29.302Z,30.00
2023-04-14T14:03:56.570Z,29.52
2023-04-14T14:06:23.666Z,29.85
2023-04-14T14:09:05.764Z,29.27
2023-04-14T14:11:33.474Z,30.83
2023-04-14T14:14:00.626Z,32.55
2023-04-14T14:18:57.471Z,30.20
2023-04-14T14:21:24.243Z,30.23
2023-04-14T14:23:51.116Z,30.45
2023-04-14T14:26:17.961Z,30.70
2023-04-14T14:28:45.612Z,32.35
2023-04-14T14:31:12.388Z,33.17
2023-04-14T14:33:39.437Z,32.83
2023-04-14T14:36:06.371Z,31.42
2023-04-14T14:38:33.183Z,34.40
2023-04-14T14:41:00.157Z,34.20
2023-04-14T14:43:27.141Z,32.70
2023-04-14T14:45:54.021Z,33.95
2023-04-14T14:48:21.175Z,33.13
2023-04-14T14:50:47.886Z,35.35
2023-04-14T14:53:14.582Z,32.22
2023-04-14T14:55:41.619Z,35.17
2023-04-14T14:58:08.565Z,48.90
2023-04-14T15:00:35.907Z,38.75
2023-04-14T15:03:02.895Z,33.03
2023-04-14T15:05:30.264Z,33.55
2023-04-14T15:07:57.017Z,34.15
2023-04-14T15:10:25.730Z,32.28
2023-04-14T15:12:53.656Z,30.95
2023-04-14T15:15:20.422Z,33.38
2023-04-14T15:17:47.413Z,34.00
2023-04-14T15:20:14.528Z,46.60
2023-04-14T15:22:41.334Z,46.65
2023-04-14T15:25:09.352Z,39.85
2023-04-14T15:27:36.569Z,35.55
2023-04-14T15:30:03.628Z,35.20
2023-04-14T15:32:30.539Z,34.83
2023-04-14T15:34:57.593Z,33.38
2023-04-14T15:37:25.396Z,42.75
2023-04-14T15:39:52.631Z,32.92
2023-04-14T15:42:19.568Z,35.83
2023-04-14T15:44:46.471Z,36.08
2023-04-14T15:47:13.396Z,42.03
2023-04-14T15:49:40.123Z,32.83
2023-04-14T15:52:06.926Z,32.47
2023-04-14T15:54:34.286Z,35.15
2023-04-14T15:57:02.355Z,60.53
2023-04-14T15:59:29.363Z,32.88
2023-04-14T16:01:56.444Z,33.47
2023-04-14T16:04:24.175Z,32.90
2023-04-14T16:06:51.446Z,32.70
2023-04-14T16:09:18.398Z,32.35
2023-04-14T16:11:45.320Z,32.55
2023-04-14T16:14:13.229Z,33.10
2023-04-14T16:16:40.312Z,33.80
2023-04-14T16:19:07.085Z,32.47
2023-04-14T16:21:33.923Z,37.28
2023-04-14T16:24:01.309Z,32.95
2023-04-14T16:26:28.963Z,43.05
2023-04-14T16:28:55.691Z,35.70
2023-04-14T16:31:23.661Z,37.85
2023-04-14T16:33:50.514Z,36.17
2023-04-14T16:36:17.474Z,33.97
2023-04-14T16:38:44.343Z,49.58
2023-04-14T16:41:11.651Z,36.28
2023-04-14T16:43:38.910Z,49.08
2023-04-14T16:46:07.215Z,35.10
2023-04-14T16:48:35.250Z,36.20
2023-04-14T16:51:09.388Z,32.83
2023-04-14T16:53:37.117Z,33.05
2023-04-14T16:56:07.688Z,36.50
2023-04-14T16:58:35.276Z,34.58
2023-04-14T17:01:02.392Z,32.13
2023-04-14T17:03:29.348Z,35.25
2023-04-14T17:05:56.721Z,35.25
2023-04-14T17:08:23.616Z,34.08
2023-04-14T17:10:50.763Z,49.50
2023-04-14T17:13:18.076Z,32.60
2023-04-14T17:15:44.898Z,32.80
2023-04-14T17:18:12.742Z,38.70
2023-04-14T17:20:41.180Z,45.30
2023-04-14T17:23:09.094Z,34.22
2023-04-14T17:25:39.213Z,51.78
2023-04-14T17:28:06.329Z,42.22
2023-04-14T17:30:35.174Z,32.55
2023-04-14T17:33:05.604Z,37.67
2023-04-14T17:35:33.335Z,41.45
2023-04-14T17:38:01.000Z,41.17
2023-04-14T17:40:28.475Z,33.92
2023-04-14T17:42:55.749Z,32.55
2023-04-14T17:45:25.773Z,32.30
2023-04-14T17:47:53.779Z,33.75
2023-04-14T17:50:25.703Z,45.65
2023-04-14T17:52:52.486Z,31.52
2023-04-14T17:55:19.382Z,33.65
2023-04-14T17:57:46.804Z,34.63
2023-04-14T18:00:14.872Z,31.30
2023-04-14T18:02:41.907Z,33.85
2023-04-14T18:05:09.427Z,34.92
2023-04-14T18:07:38.833Z,46.50
2023-04-14T18:10:06.670Z,46.00
2023-04-14T18:12:33.574Z,35.13
2023-04-14T18:15:00.458Z,40.85
2023-04-14T18:17:27.564Z,37.83
2023-04-14T18:19:56.701Z,35.30
2023-04-14T18:22:23.774Z,47.10
2023-04-14T18:24:51.074Z,32.85
2023-04-14T18:29:48.183Z,34.78
2023-04-14T18:32:15.563Z,36.95
2023-04-14T18:34:43.271Z,37.97
2023-04-14T18:37:10.517Z,53.63
2023-04-14T18:39:37.905Z,37.72
2023-04-14T18:42:05.529Z,44.50
2023-04-14T18:44:32.838Z,32.80
2023-04-14T18:46:59.719Z,33.95
2023-04-14T18:49:26.610Z,36.78
2023-04-14T18:51:53.864Z,42.00
2023-04-14T18:54:22.007Z,30.13
2023-04-14T18:56:49.392Z,40.53
2023-04-14T18:59:16.244Z,39.10
2023-04-14T19:01:43.124Z,30.52
2023-04-14T19:04:10.072Z,35.28
2023-04-14T19:06:37.272Z,31.35
2023-04-14T19:09:04.675Z,27.50
2023-04-14T19:11:36.215Z,30.17
2023-04-14T19:14:06.009Z,26.38
2023-04-14T19:16:33.188Z,35.60
2023-04-14T19:19:00.474Z,30.33
2023-04-14T19:21:27.440Z,32.25
2023-04-14T19:23:56.679Z,27.77
2023-04-14T19:26:24.393Z,32.08
2023-04-14T19:28:53.041Z,27.27
2023-04-14T19:31:21.593Z,28.95
2023-04-14T19:33:49.310Z,31.15
2023-04-14T19:36:17.674Z,26.33
2023-04-14T19:38:44.451Z,30.77
2023-04-14T19:41:11.731Z,26.40
2023-04-14T19:43:38.981Z,33.20
2023-04-14T19:46:07.308Z,25.30
2023-04-14T19:51:02.289Z,27.45
2023-04-14T19:53:29.263Z,31.33
2023-04-14T19:55:57.353Z,26.20
2023-04-14T19:58:27.813Z,27.25
2023-04-14T20:00:57.373Z,26.55
2023-04-14T20:05:56.914Z,24.98
2023-04-14T20:08:24.486Z,25.15
2023-04-14T20:10:52.807Z,25.35
2023-04-14T20:13:23.251Z,24.17
2023-04-14T20:15:51.042Z,25.08
2023-04-14T20:18:20.999Z,25.63
2023-04-14T20:20:48.792Z,24.80
2023-04-14T20:23:15.950Z,27.08
2023-04-14T20:25:45.784Z,25.13
2023-04-14T20:28:12.589Z,30.65
2023-04-14T20:30:40.387Z,33.13
2023-04-14T20:33:08.207Z,24.48
2023-04-14T20:35:36.106Z,24.83
2023-04-14T20:38:03.065Z,29.00
2023-04-14T20:40:30.310Z,26.80
2023-04-14T20:42:57.719Z,29.20
2023-04-14T20:45:25.060Z,27.10
2023-04-14T20:47:51.975Z,24.70
2023-04-14T20:50:18.990Z,32.38
2023-04-14T20:52:45.863Z,28.25
2023-04-14T20:55:13.596Z,24.67
2023-04-14T20:57:41.675Z,29.02
2023-04-14T21:00:12.401Z,31.88
2023-04-14T21:02:39.359Z,29.67
2023-04-14T21:05:06.592Z,27.10
2023-04-14T21:07:35.514Z,25.80
2023-04-14T21:10:04.226Z,26.98
2023-04-14T21:12:35.334Z,25.75
2023-04-14T21:15:48.600Z,24.30
2023-04-14T21:17:52.062Z,25.05
2023-04-14T21:20:19.010Z,27.70
2023-04-14T21:22:45.746Z,28.25
2023-04-14T21:25:12.500Z,26.27
2023-04-14T21:27:39.362Z,26.90
2023-04-14T21:30:06.791Z,26.90
2023-04-14T21:32:34.291Z,25.48
2023-04-14T21:35:01.311Z,27.88
2023-04-14T21:37:28.067Z,26.15
2023-04-14T21:39:55.512Z,26.42
2023-04-14T21:42:22.491Z,26.50
2023-04-14T21:44:49.383Z,26.08
2023-04-14T21:47:16.468Z,25.58
2023-04-14T21:49:43.302Z,26.95
2023-04-14T21:52:10.292Z,35.25
2023-04-14T21:54:41.549Z,26.17
2023-04-14T21:57:08.294Z,34.03
2023-04-14T21:59:35.067Z,27.80
2023-04-14T22:02:01.980Z,32.40
2023-04-14T22:04:36.285Z,30.88
2023-04-14T22:07:05.497Z,26.45
2023-04-14T22:09:33.505Z,26.85
2023-04-14T22:12:00.493Z,25.67
2023-04-14T22:14:27.872Z,28.10
2023-04-14T22:16:55.178Z,25.20
2023-04-14T22:19:21.993Z,28.17
2023-04-14T22:21:48.934Z,25.85
2023-04-14T22:24:15.687Z,24.08
2023-04-14T22:26:42.401Z,26.33
2023-04-14T22:29:11.596Z,27.90
2023-04-14T22:31:38.529Z,25.40
2023-04-14T22:34:05.394Z,28.55
2023-04-14T22:36:32.483Z,30.95
2023-04-14T22:38:59.369Z,32.35
2023-04-14T22:41:26.378Z,25.63
2023-04-14T22:43:53.226Z,30.25
2023-04-14T22:46:20.239Z,24.77
2023-04-14T22:48:47.210Z,33.65
2023-04-14T22:51:14.185Z,26.90
2023-04-14T22:53:41.344Z,24.92
2023-04-14T22:56:08.678Z,24.05
2023-04-14T22:58:39.408Z,26.90
2023-04-14T23:01:19.091Z,27.95
2023-04-14T23:03:50.161Z,23.92
2023-04-14T23:06:18.121Z,23.33
2023-04-14T23:08:44.914Z,24.27
2023-04-14T23:11:11.835Z,27.73
2023-04-14T23:13:38.572Z,23.95
2023-04-14T23:16:06.062Z,24.52
2023-04-14T23:18:33.119Z,27.90
2023-04-14T23:20:59.875Z,22.92
2023-04-14T23:23:27.542Z,29.92
2023-04-14T23:25:55.920Z,26.50
2023-04-14T23:28:22.867Z,23.05
2023-04-14T23:30:49.678Z,24.35
2023-04-14T23:33:16.506Z,24.65
2023-04-14T23:35:43.284Z,24.38
2023-04-14T23:38:10.088Z,31.17
2023-04-14T23:40:37.437Z,25.92
2023-04-14T23:43:05.278Z,29.65
2023-04-14T23:45:37.158Z,24.30
2023-04-14T23:48:05.436Z,25.80
2023-04-14T23:50:59.099Z,24.27
2023-04-14T23:53:20.140Z,23.42
2023-04-14T23:55:47.836Z,23.60
2023-04-14T23:58:26.002Z,24.58
